createdAt,value
2022-12-08T00:01:22.861Z,3.28
2022-12-08T00:03:49.801Z,3.25
2022-12-08T00:06:48.124Z,3.22
2022-12-08T00:09:23.539Z,3.24
2022-12-08T00:11:51.766Z,3.24
2022-12-08T00:14:18.428Z,3.26
2022-12-08T00:16:45.186Z,3.23
2022-12-08T00:19:11.613Z,3.22
2022-12-08T00:21:37.947Z,3.19
2022-12-08T00:24:04.539Z,3.23
2022-12-08T00:26:30.879Z,3.20
2022-12-08T00:28:57.288Z,3.20
2022-12-08T00:31:23.705Z,3.22
2022-12-08T00:33:50.118Z,3.22
2022-12-08T00:36:16.606Z,3.24
2022-12-08T00:38:44.667Z,3.19
2022-12-08T00:41:14.483Z,3.19
2022-12-08T00:43:41.527Z,3.16
2022-12-08T00:46:08.451Z,3.11
2022-12-08T00:48:34.848Z,3.14
2022-12-08T00:51:01.268Z,3.14
2022-12-08T00:53:27.596Z,3.11
2022-12-08T00:55:53.961Z,3.14
2022-12-08T00:58:20.305Z,3.10
2022-12-08T01:00:46.744Z,3.14
2022-12-08T01:03:13.235Z,3.06
2022-12-08T01:05:39.730Z,3.10
2022-12-08T01:08:07.728Z,3.10
2022-12-08T01:10:38.011Z,3.07
2022-12-08T01:13:04.560Z,3.08
2022-12-08T01:15:30.934Z,3.08
2022-12-08T01:17:57.349Z,3.04
2022-12-08T01:20:24.070Z,3.05
2022-12-08T01:22:50.445Z,3.07
2022-12-08T01:25:16.850Z,3.03
2022-12-08T01:27:43.178Z,3.05
2022-12-08T01:30:10.118Z,2.99
2022-12-08T01:32:36.792Z,3.03
2022-12-08T01:35:03.206Z,3.03
2022-12-08T01:37:29.666Z,2.98
2022-12-08T01:39:56.058Z,2.96
2022-12-08T01:42:23.315Z,2.95
2022-12-08T01:44:54.668Z,2.98
2022-12-08T01:47:22.905Z,3.02
2022-12-08T01:49:49.416Z,2.93
2022-12-08T01:52:31.562Z,2.96
2022-12-08T01:55:03.968Z,3.01
2022-12-08T01:57:35.300Z,2.97
2022-12-08T02:00:14.137Z,3.00
2022-12-08T02:02:53.202Z,2.98
2022-12-08T02:05:23.004Z,3.00
2022-12-08T02:07:50.118Z,3.01
2022-12-08T02:10:20.467Z,3.01
2022-12-08T02:12:48.858Z,3.03
2022-12-08T02:15:15.640Z,3.07
2022-12-08T02:18:00.122Z,3.03
2022-12-08T02:20:32.074Z,3.04
2022-12-08T02:23:15.076Z,3.11
2022-12-08T02:26:03.366Z,3.10
2022-12-08T02:28:50.961Z,3.09
2022-12-08T02:31:23.363Z,3.11
2022-12-08T02:34:08.979Z,3.11
2022-12-08T02:36:40.180Z,3.14
2022-12-08T02:39:22.238Z,3.11
2022-12-08T02:41:51.574Z,3.15
2022-12-08T02:44:27.916Z,3.12
2022-12-08T02:47:01.099Z,3.12
2022-12-08T02:49:29.789Z,3.16
2022-12-08T02:52:26.660Z,3.15
2022-12-08T02:54:57.577Z,3.17
2022-12-08T02:57:51.429Z,3.18
2022-12-08T03:00:22.403Z,3.18
2022-12-08T03:03:13.148Z,3.11
2022-12-08T03:05:54.834Z,3.17
2022-12-08T03:08:49.989Z,3.12
2022-12-08T03:11:36.940Z,3.22
2022-12-08T03:14:06.909Z,3.12
2022-12-08T03:16:38.636Z,3.22
2022-12-08T03:19:13.305Z,3.18
2022-12-08T03:21:41.149Z,3.18
2022-12-08T03:24:10.302Z,3.16
2022-12-08T03:26:51.771Z,3.24
2022-12-08T03:29:18.792Z,3.21
2022-12-08T03:31:51.831Z,3.18
2022-12-08T03:34:19.874Z,3.23
2022-12-08T03:36:46.237Z,3.20
2022-12-08T03:39:12.714Z,3.20
2022-12-08T03:41:39.061Z,3.23
2022-12-08T03:44:05.454Z,3.20
2022-12-08T03:46:31.858Z,3.18
2022-12-08T03:48:58.427Z,3.22
2022-12-08T03:51:24.901Z,3.19
2022-12-08T03:53:51.266Z,3.22
2022-12-08T03:56:32.387Z,3.19
2022-12-08T03:58:59.213Z,3.17
2022-12-08T04:01:25.935Z,3.14
2022-12-08T04:03:52.340Z,3.29
2022-12-08T04:06:19.022Z,3.26
2022-12-08T04:08:45.578Z,3.21
2022-12-08T04:11:12.038Z,3.23
2022-12-08T04:13:39.938Z,3.20
2022-12-08T04:16:07.435Z,3.19
2022-12-08T04:18:34.982Z,3.17
2022-12-08T04:21:01.724Z,3.18
2022-12-08T04:23:28.085Z,3.22
2022-12-08T04:25:54.593Z,3.19
2022-12-08T04:28:21.676Z,3.25
2022-12-08T04:30:49.002Z,3.18
2022-12-08T04:33:15.465Z,3.18
2022-12-08T04:35:41.804Z,3.16
2022-12-08T04:38:08.216Z,3.16
2022-12-08T04:40:34.600Z,3.22
2022-12-08T04:43:00.960Z,3.19
2022-12-08T04:45:27.305Z,3.21
2022-12-08T04:47:53.654Z,3.16
2022-12-08T04:50:19.989Z,3.20
2022-12-08T04:52:46.328Z,3.22
2022-12-08T04:55:12.774Z,3.19
2022-12-08T04:57:39.115Z,3.21
2022-12-08T05:00:06.602Z,3.24
2022-12-08T05:02:33.369Z,3.22
2022-12-08T05:04:59.940Z,3.24
2022-12-08T05:07:26.452Z,3.21
2022-12-08T05:09:52.831Z,3.18
2022-12-08T05:12:19.161Z,3.15
2022-12-08T05:14:47.085Z,3.16
2022-12-08T05:17:14.390Z,3.14
2022-12-08T05:19:40.730Z,3.13
2022-12-08T05:22:07.077Z,3.11
2022-12-08T05:24:33.465Z,3.15
2022-12-08T05:26:59.937Z,3.20
2022-12-08T05:29:26.429Z,3.14
2022-12-08T05:31:52.823Z,3.12
2022-12-08T05:34:19.293Z,3.17
2022-12-08T05:36:45.638Z,3.20
2022-12-08T05:39:15.476Z,3.18
2022-12-08T05:41:42.089Z,3.19
2022-12-08T05:44:08.665Z,3.24
2022-12-08T05:46:35.825Z,3.19
2022-12-08T05:49:03.297Z,3.18
2022-12-08T05:51:29.921Z,3.20
2022-12-08T05:53:56.777Z,3.12
2022-12-08T05:56:23.732Z,3.13
2022-12-08T05:58:50.220Z,3.12
2022-12-08T06:01:28.069Z,3.10
2022-12-08T06:03:55.145Z,3.07
2022-12-08T06:06:21.912Z,3.06
2022-12-08T06:08:48.764Z,3.07
2022-12-08T06:11:23.539Z,2.98
2022-12-08T06:13:50.125Z,2.97
2022-12-08T06:16:17.165Z,3.05
2022-12-08T06:18:44.250Z,2.97
2022-12-08T06:21:12.232Z,3.02
2022-12-08T06:23:38.716Z,2.97
2022-12-08T06:26:15.493Z,2.91
2022-12-08T06:28:42.722Z,2.90
2022-12-08T06:31:09.062Z,2.87
2022-12-08T06:33:36.429Z,2.86
2022-12-08T06:36:03.351Z,2.82
2022-12-08T06:38:30.077Z,2.77
2022-12-08T06:40:58.060Z,2.81
2022-12-08T06:43:25.588Z,2.79
2022-12-08T06:45:52.523Z,2.81
2022-12-08T06:48:19.598Z,2.85
2022-12-08T06:50:46.023Z,2.85
2022-12-08T06:53:13.444Z,2.87
2022-12-08T06:55:59.337Z,2.85
2022-12-08T06:58:26.155Z,2.88
2022-12-08T07:00:52.648Z,2.94
2022-12-08T07:03:19.063Z,2.93
2022-12-08T07:05:45.391Z,2.97
2022-12-08T07:08:11.867Z,2.92
2022-12-08T07:10:38.266Z,2.95
2022-12-08T07:13:04.662Z,2.94
2022-12-08T07:15:31.124Z,2.92
2022-12-08T07:18:00.117Z,2.96
2022-12-08T07:20:27.275Z,2.96
2022-12-08T07:22:53.971Z,2.88
2022-12-08T07:25:20.471Z,2.94
2022-12-08T07:27:47.212Z,2.92
2022-12-08T07:30:14.153Z,2.94
2022-12-08T07:32:40.663Z,2.91
2022-12-08T07:35:08.292Z,2.92
2022-12-08T07:37:35.963Z,2.96
2022-12-08T07:40:02.848Z,2.94
2022-12-08T07:42:29.629Z,2.99
2022-12-08T07:44:56.100Z,2.97
2022-12-08T07:47:22.492Z,3.02
2022-12-08T07:49:48.901Z,3.01
2022-12-08T07:52:15.248Z,3.05
2022-12-08T07:54:41.634Z,3.02
2022-12-08T07:57:09.478Z,3.06
2022-12-08T07:59:35.889Z,3.10
2022-12-08T08:02:23.006Z,3.12
2022-12-08T08:04:51.804Z,3.15
2022-12-08T08:07:18.184Z,3.12
2022-12-08T08:09:45.570Z,3.12
2022-12-08T08:12:29.581Z,3.11
2022-12-08T08:14:56.929Z,3.02
2022-12-08T08:17:23.695Z,2.97
2022-12-08T08:19:50.204Z,2.97
2022-12-08T08:22:16.526Z,2.95
2022-12-08T08:24:45.081Z,2.96
2022-12-08T08:27:12.223Z,2.98
2022-12-08T08:29:38.574Z,2.98
2022-12-08T08:32:05.116Z,2.94
2022-12-08T08:34:31.485Z,2.91
2022-12-08T08:36:58.018Z,2.89
2022-12-08T08:39:24.397Z,2.89
2022-12-08T08:41:50.772Z,2.84
2022-12-08T08:44:17.152Z,2.82
2022-12-08T08:46:43.603Z,2.78
2022-12-08T08:49:10.046Z,2.83
2022-12-08T08:51:36.502Z,2.89
2022-12-08T08:54:02.971Z,2.89
2022-12-08T08:56:29.316Z,2.94
2022-12-08T08:58:55.704Z,2.85
2022-12-08T09:01:26.931Z,2.85
2022-12-08T09:03:54.896Z,2.91
2022-12-08T09:06:21.828Z,2.86
2022-12-08T09:08:48.977Z,2.87
2022-12-08T09:11:16.160Z,2.86
2022-12-08T09:13:42.572Z,2.85
2022-12-08T09:16:11.045Z,2.79
2022-12-08T09:18:37.501Z,2.84
2022-12-08T09:21:06.572Z,2.88
2022-12-08T09:23:35.646Z,2.86
2022-12-08T09:26:04.884Z,2.84
2022-12-08T09:28:32.088Z,2.82
2022-12-08T09:30:58.529Z,2.81
2022-12-08T09:33:24.918Z,2.77
2022-12-08T09:35:51.250Z,2.75
2022-12-08T09:38:17.638Z,2.77
2022-12-08T09:40:50.732Z,2.75
2022-12-08T09:43:38.918Z,2.77
2022-12-08T09:46:09.257Z,2.85
2022-12-08T09:48:39.579Z,2.81
2022-12-08T09:51:06.123Z,2.81
2022-12-08T09:53:39.370Z,2.80
2022-12-08T09:56:12.780Z,2.79
2022-12-08T09:58:55.152Z,2.79
2022-12-08T10:01:24.287Z,2.73
2022-12-08T10:03:52.132Z,2.75
2022-12-08T10:06:31.573Z,2.83
2022-12-08T10:09:36.113Z,2.83
2022-12-08T10:12:41.599Z,2.81
2022-12-08T10:15:29.828Z,2.84
2022-12-08T10:18:00.662Z,2.78
2022-12-08T10:20:40.511Z,2.81
2022-12-08T10:23:12.620Z,2.86
2022-12-08T10:25:58.474Z,2.88
2022-12-08T10:28:24.857Z,2.92
2022-12-08T10:30:51.268Z,2.98
2022-12-08T10:33:20.431Z,2.88
2022-12-08T10:35:53.007Z,2.83
2022-12-08T10:38:42.411Z,2.84
2022-12-08T10:41:11.495Z,2.81
2022-12-08T10:43:48.834Z,2.81
2022-12-08T10:46:18.996Z,2.75
2022-12-08T10:49:08.817Z,2.77
2022-12-08T10:51:38.923Z,2.78
2022-12-08T10:54:08.398Z,2.77
2022-12-08T10:56:34.763Z,2.81
2022-12-08T10:59:16.254Z,2.81
2022-12-08T11:01:47.034Z,2.85
2022-12-08T11:04:18.344Z,2.81
2022-12-08T11:06:46.398Z,2.74
2022-12-08T11:09:15.487Z,2.74
2022-12-08T11:11:49.999Z,2.65
2022-12-08T11:14:22.912Z,2.60
2022-12-08T11:17:23.054Z,2.56
2022-12-08T11:20:23.026Z,2.62
2022-12-08T11:22:54.999Z,2.58
2022-12-08T11:25:28.195Z,2.56
2022-12-08T11:27:58.138Z,2.55
2022-12-08T11:30:35.981Z,2.49
2022-12-08T11:33:17.167Z,2.51
2022-12-08T11:35:47.318Z,2.51
2022-12-08T11:38:23.636Z,2.49
2022-12-08T11:41:10.954Z,2.51
2022-12-08T11:43:56.412Z,2.51
2022-12-08T11:46:32.265Z,2.51
2022-12-08T11:49:06.705Z,2.44
2022-12-08T11:51:39.296Z,2.42
2022-12-08T11:54:08.948Z,2.42
2022-12-08T11:56:42.396Z,2.50
2022-12-08T11:59:18.826Z,2.54
2022-12-08T12:01:45.369Z,2.54
2022-12-08T12:04:14.587Z,2.60
2022-12-08T12:07:12.519Z,2.58
2022-12-08T12:09:57.123Z,2.63
2022-12-08T12:12:55.860Z,2.66
2022-12-08T12:16:09.722Z,2.64
2022-12-08T12:18:46.498Z,2.71
2022-12-08T12:21:29.208Z,2.73
2022-12-08T12:23:59.451Z,2.76
2022-12-08T12:26:29.195Z,2.80
2022-12-08T12:29:12.810Z,2.75
2022-12-08T12:31:43.133Z,2.76
2022-12-08T12:34:51.112Z,2.69
2022-12-08T12:37:21.992Z,2.76
2022-12-08T12:40:11.308Z,2.86
2022-12-08T12:42:44.347Z,2.85
2022-12-08T12:45:16.859Z,2.88
2022-12-08T12:47:55.997Z,2.93
2022-12-08T12:50:36.979Z,3.00
2022-12-08T12:53:07.903Z,2.91
2022-12-08T12:55:46.287Z,2.86
2022-12-08T12:58:35.367Z,2.97
2022-12-08T13:01:13.891Z,2.96
2022-12-08T13:03:43.910Z,2.95
2022-12-08T13:06:15.030Z,2.96
2022-12-08T13:08:55.031Z,3.05
2022-12-08T13:11:22.458Z,3.13
2022-12-08T13:13:56.782Z,3.09
2022-12-08T13:16:26.068Z,3.04
2022-12-08T13:18:57.483Z,3.00
2022-12-08T13:21:31.877Z,2.91
2022-12-08T13:24:24.221Z,2.94
2022-12-08T13:27:10.923Z,2.96
2022-12-08T13:29:38.474Z,2.91
2022-12-08T13:33:16.154Z,2.87
2022-12-08T13:35:30.159Z,2.91
2022-12-08T13:37:59.870Z,2.87
2022-12-08T13:40:30.076Z,2.93
2022-12-08T13:43:10.386Z,2.91
2022-12-08T13:46:41.941Z,2.86
2022-12-08T13:55:26.948Z,2.98
2022-12-08T13:57:29.507Z,2.94
2022-12-08T14:00:01.924Z,2.90
2022-12-08T14:02:47.338Z,2.79
2022-12-08T14:05:34.893Z,2.72
2022-12-08T14:08:02.380Z,2.80
2022-12-08T14:10:31.841Z,2.76
2022-12-08T14:13:11.980Z,2.69
2022-12-08T14:15:40.078Z,2.65
2022-12-08T14:18:21.340Z,2.61
2022-12-08T14:21:20.271Z,2.58
2022-12-08T14:23:45.963Z,2.56
2022-12-08T14:26:12.739Z,2.63
2022-12-08T14:28:44.790Z,2.58
2022-12-08T14:31:13.945Z,2.65
2022-12-08T14:33:40.658Z,2.63
2022-12-08T14:36:09.659Z,2.55
2022-12-08T14:38:36.269Z,2.65
2022-12-08T14:41:09.152Z,2.63
2022-12-08T14:43:35.879Z,2.58
2022-12-08T14:46:06.470Z,2.56
2022-12-08T14:48:42.768Z,2.64
2022-12-08T14:51:19.595Z,2.61
2022-12-08T14:54:09.417Z,2.56
2022-12-08T14:56:35.813Z,2.55
2022-12-08T14:59:19.613Z,2.61
2022-12-08T15:01:48.118Z,2.51
2022-12-08T15:04:14.683Z,2.55
2022-12-08T15:06:58.109Z,2.60
2022-12-08T15:09:40.836Z,2.61
2022-12-08T15:12:13.195Z,2.57
2022-12-08T15:15:01.208Z,2.56
2022-12-08T15:17:41.482Z,2.58
2022-12-08T15:20:34.810Z,2.63
2022-12-08T15:23:02.566Z,2.59
2022-12-08T15:25:29.041Z,2.54
2022-12-08T15:27:56.999Z,2.53
2022-12-08T15:30:26.283Z,2.59
2022-12-08T15:32:54.091Z,2.62
2022-12-08T15:35:21.154Z,2.55
2022-12-08T15:37:47.696Z,2.59
2022-12-08T15:40:19.931Z,2.61
2022-12-08T15:42:46.514Z,2.64
2022-12-08T15:45:14.406Z,2.56
2022-12-08T15:47:42.326Z,2.59
2022-12-08T15:50:22.810Z,2.60
2022-12-08T15:52:50.519Z,2.66
2022-12-08T15:55:19.160Z,2.63
2022-12-08T16:00:52.357Z,2.60
2022-12-08T16:04:09.412Z,2.61
2022-12-08T16:07:04.738Z,2.57
2022-12-08T16:09:12.783Z,2.57
2022-12-08T16:12:08.155Z,2.62
2022-12-08T16:17:22.370Z,2.73
2022-12-08T16:19:48.915Z,2.74
2022-12-08T16:22:52.424Z,2.75
2022-12-08T16:25:21.326Z,2.75
2022-12-08T16:28:01.483Z,2.76
2022-12-08T16:30:29.771Z,2.74
2022-12-08T16:32:56.139Z,2.71
2022-12-08T16:35:22.522Z,2.78
2022-12-08T16:37:48.926Z,2.74
2022-12-08T16:40:15.476Z,2.63
2022-12-08T16:42:45.707Z,2.69
2022-12-08T16:45:20.251Z,2.74
2022-12-08T16:47:53.857Z,2.75
2022-12-08T16:50:24.213Z,2.81
2022-12-08T16:52:56.760Z,2.76
2022-12-08T16:55:23.154Z,2.75
2022-12-08T16:57:49.863Z,2.74
2022-12-08T17:00:27.873Z,2.70
2022-12-08T17:02:55.156Z,2.76
2022-12-08T17:05:23.308Z,2.73
2022-12-08T17:07:51.336Z,2.77
2022-12-08T17:10:22.761Z,2.77
2022-12-08T17:12:49.944Z,2.67
2022-12-08T17:15:19.491Z,2.62
2022-12-08T17:17:45.863Z,2.69
2022-12-08T17:20:18.263Z,2.61
2022-12-08T17:22:44.982Z,2.62
2022-12-08T17:25:11.686Z,2.64
2022-12-08T17:27:39.083Z,2.66
2022-12-08T17:30:08.343Z,2.69
2022-12-08T17:32:35.225Z,2.68
2022-12-08T17:35:01.677Z,2.63
2022-12-08T17:37:28.078Z,2.63
2022-12-08T17:39:54.542Z,2.68
2022-12-08T17:42:25.752Z,2.64
2022-12-08T17:44:52.987Z,2.68
2022-12-08T17:47:19.390Z,2.70
2022-12-08T17:49:45.911Z,2.68
2022-12-08T17:52:13.725Z,2.76
2022-12-08T17:54:40.319Z,2.66
2022-12-08T17:57:06.774Z,2.62
2022-12-08T17:59:33.314Z,2.64
2022-12-08T18:02:00.263Z,2.64
2022-12-08T18:04:27.954Z,2.69
2022-12-08T18:06:54.852Z,2.73
2022-12-08T18:09:21.437Z,2.71
2022-12-08T18:11:47.924Z,2.72
2022-12-08T18:14:15.366Z,2.68
2022-12-08T18:16:44.496Z,2.66
2022-12-08T18:19:12.213Z,2.66
2022-12-08T18:21:39.503Z,2.73
2022-12-08T18:24:07.041Z,2.73
2022-12-08T18:26:33.692Z,2.77
2022-12-08T18:29:01.045Z,2.78
2022-12-08T18:31:27.568Z,2.77
2022-12-08T18:33:54.104Z,2.73
2022-12-08T18:36:24.366Z,2.74
2022-12-08T18:38:51.369Z,2.70
2022-12-08T18:41:20.696Z,2.70
2022-12-08T18:43:47.091Z,2.66
2022-12-08T18:46:14.760Z,2.66
2022-12-08T18:48:47.107Z,2.67
2022-12-08T18:51:15.830Z,2.68
2022-12-08T18:53:42.781Z,2.69
2022-12-08T18:56:19.581Z,2.69
2022-12-08T18:58:45.966Z,2.70
2022-12-08T19:01:16.071Z,2.69
2022-12-08T19:03:52.823Z,2.65
2022-12-08T19:06:29.880Z,2.70
2022-12-08T19:08:56.872Z,2.68
2022-12-08T19:11:25.799Z,2.70
2022-12-08T19:13:53.120Z,2.68
2022-12-08T19:16:19.772Z,2.63
2022-12-08T19:18:46.246Z,2.64
2022-12-08T19:21:13.036Z,2.63
2022-12-08T19:23:41.273Z,2.59
2022-12-08T19:26:08.330Z,2.62
2022-12-08T19:28:35.196Z,2.55
2022-12-08T19:31:09.121Z,2.56
2022-12-08T19:33:37.445Z,2.55
2022-12-08T19:36:08.993Z,2.54
2022-12-08T19:38:55.650Z,2.50
2022-12-08T19:41:41.461Z,2.44
2022-12-08T19:44:19.312Z,2.39
2022-12-08T19:46:45.709Z,2.40
2022-12-08T19:49:12.322Z,2.42
2022-12-08T19:51:38.700Z,2.41
2022-12-08T19:54:05.161Z,2.39
2022-12-08T19:56:31.621Z,2.27
2022-12-08T19:58:58.005Z,2.23
2022-12-08T20:01:24.509Z,2.20
2022-12-08T20:03:51.049Z,2.02
2022-12-08T20:06:18.674Z,1.99
2022-12-08T20:08:50.386Z,1.94
2022-12-08T20:11:17.134Z,1.93
2022-12-08T20:13:47.727Z,1.86
2022-12-08T20:16:15.796Z,1.79
2022-12-08T20:18:43.970Z,1.73
2022-12-08T20:21:12.157Z,1.78
2022-12-08T20:23:38.577Z,1.81
2022-12-08T20:26:09.955Z,1.81
2022-12-08T20:28:37.203Z,1.82
2022-12-08T20:31:04.236Z,1.64
2022-12-08T20:33:31.302Z,1.61
2022-12-08T20:36:07.917Z,1.58
2022-12-08T20:38:34.270Z,1.63
2022-12-08T20:41:00.646Z,1.65
2022-12-08T20:43:26.977Z,1.70
2022-12-08T20:45:53.374Z,1.68
2022-12-08T20:48:19.714Z,1.64
2022-12-08T20:50:52.283Z,1.63
2022-12-08T20:53:18.705Z,1.57
2022-12-08T20:55:45.165Z,1.56
2022-12-08T20:58:12.254Z,1.58
2022-12-08T21:00:38.742Z,1.57
2022-12-08T21:03:05.339Z,1.58
2022-12-08T21:05:31.980Z,1.54
2022-12-08T21:08:00.873Z,1.54
2022-12-08T21:10:27.397Z,1.53
2022-12-08T21:12:53.923Z,1.51
2022-12-08T21:15:20.432Z,1.48
2022-12-08T21:17:47.031Z,1.48
2022-12-08T21:20:13.657Z,1.46
2022-12-08T21:22:40.700Z,1.48
2022-12-08T21:25:08.219Z,1.51
2022-12-08T21:27:34.944Z,1.51
2022-12-08T21:30:01.375Z,1.51
2022-12-08T21:32:30.694Z,1.48
2022-12-08T21:34:57.404Z,1.49
2022-12-08T21:37:24.225Z,1.50
2022-12-08T21:39:50.874Z,1.47
2022-12-08T21:42:35.913Z,1.48
2022-12-08T21:45:04.162Z,1.47
2022-12-08T21:47:30.768Z,1.54
2022-12-08T21:49:57.369Z,1.53
2022-12-08T21:52:23.901Z,1.53
2022-12-08T21:54:50.362Z,1.51
2022-12-08T21:57:16.763Z,1.52
2022-12-08T21:59:43.200Z,1.56
2022-12-08T22:02:19.439Z,1.57
2022-12-08T22:04:49.517Z,1.58
2022-12-08T22:07:16.325Z,1.59
2022-12-08T22:09:42.785Z,1.63
2022-12-08T22:12:11.573Z,1.64
2022-12-08T22:14:39.262Z,1.58
2022-12-08T22:17:06.742Z,1.60
2022-12-08T22:19:33.670Z,1.61
2022-12-08T22:22:00.308Z,1.63
2022-12-08T22:24:29.751Z,1.57
2022-12-08T22:26:56.400Z,1.65
2022-12-08T22:29:22.955Z,1.76
2022-12-08T22:31:49.731Z,1.80
2022-12-08T22:34:16.366Z,1.82
2022-12-08T22:36:43.022Z,1.85
2022-12-08T22:39:09.959Z,1.87
2022-12-08T22:41:36.538Z,1.90
2022-12-08T22:44:06.501Z,1.94
2022-12-08T22:46:33.279Z,1.91
2022-12-08T22:49:00.550Z,1.94
2022-12-08T22:51:27.112Z,1.93
2022-12-08T22:53:53.792Z,1.89
2022-12-08T22:56:20.702Z,1.89
2022-12-08T22:58:47.436Z,1.87
2022-12-08T23:01:21.367Z,1.88
2022-12-08T23:03:47.944Z,1.89
2022-12-08T23:06:14.818Z,1.91
2022-12-08T23:08:41.329Z,1.92
2022-12-08T23:11:07.797Z,1.95
2022-12-08T23:13:34.262Z,1.96
2022-12-08T23:16:00.767Z,1.96
2022-12-08T23:18:27.267Z,1.99
2022-12-08T23:20:53.958Z,2.02
2022-12-08T23:23:20.292Z,2.02
2022-12-08T23:25:46.598Z,2.02
2022-12-08T23:28:13.200Z,2.05
2022-12-08T23:30:40.785Z,2.02
2022-12-08T23:33:07.289Z,2.00
2022-12-08T23:35:33.724Z,2.01
2022-12-08T23:38:00.289Z,2.04
2022-12-08T23:40:27.084Z,2.09
2022-12-08T23:42:53.478Z,2.09
2022-12-08T23:45:19.829Z,2.08
2022-12-08T23:47:46.242Z,2.06
2022-12-08T23:50:12.788Z,2.04
2022-12-08T23:52:40.146Z,2.05
2022-12-08T23:55:07.866Z,2.05
2022-12-08T23:57:37.545Z,1.98
